sensor_id;sensor_type;location;lat;lon;timestamp;P1;durP1;ratioP1;P2;durP2;ratioP2
43809;SDS011;29440;48.208;11.162;2024-02-26T00:01:42;5.18;;;3.20;;
43809;SDS011;29440;48.208;11.162;2024-02-26T00:04:11;6.35;;;2.88;;
43809;SDS011;29440;48.208;11.162;2024-02-26T00:06:38;9.35;;;3.65;;
43809;SDS011;29440;48.208;11.162;2024-02-26T00:09:06;6.78;;;3.90;;
43809;SDS011;29440;48.208;11.162;2024-02-26T00:11:33;7.97;;;4.28;;
43809;SDS011;29440;48.208;11.162;2024-02-26T00:13:58;6.15;;;3.30;;
43809;SDS011;29440;48.208;11.162;2024-02-26T00:16:24;5.88;;;3.65;;
43809;SDS011;29440;48.208;11.162;2024-02-26T00:18:49;5.22;;;3.65;;
43809;SDS011;29440;48.208;11.162;2024-02-26T00:21:15;7.32;;;4.13;;
43809;SDS011;29440;48.208;11.162;2024-02-26T00:23:41;4.95;;;2.92;;
43809;SDS011;29440;48.208;11.162;2024-02-26T00:26:06;7.05;;;3.60;;
43809;SDS011;29440;48.208;11.162;2024-02-26T00:28:32;6.05;;;4.10;;
43809;SDS011;29440;48.208;11.162;2024-02-26T00:30:58;7.18;;;4.45;;
43809;SDS011;29440;48.208;11.162;2024-02-26T00:33:24;10.93;;;4.93;;
43809;SDS011;29440;48.208;11.162;2024-02-26T00:35:50;9.45;;;5.25;;
43809;SDS011;29440;48.208;11.162;2024-02-26T00:38:15;9.18;;;5.00;;
43809;SDS011;29440;48.208;11.162;2024-02-26T00:40:41;9.43;;;4.78;;
43809;SDS011;29440;48.208;11.162;2024-02-26T00:43:07;11.60;;;5.18;;
43809;SDS011;29440;48.208;11.162;2024-02-26T00:45:32;9.43;;;5.40;;
43809;SDS011;29440;48.208;11.162;2024-02-26T00:47:58;9.75;;;5.28;;
43809;SDS011;29440;48.208;11.162;2024-02-26T00:50:26;9.40;;;5.05;;
43809;SDS011;29440;48.208;11.162;2024-02-26T00:52:52;10.23;;;5.55;;
43809;SDS011;29440;48.208;11.162;2024-02-26T00:55:18;8.82;;;5.32;;
43809;SDS011;29440;48.208;11.162;2024-02-26T00:57:44;9.90;;;5.72;;
43809;SDS011;29440;48.208;11.162;2024-02-26T01:00:09;10.02;;;5.13;;
43809;SDS011;29440;48.208;11.162;2024-02-26T01:02:35;12.38;;;6.07;;
43809;SDS011;29440;48.208;11.162;2024-02-26T01:05:01;11.57;;;6.32;;
43809;SDS011;29440;48.208;11.162;2024-02-26T01:07:27;10.00;;;5.75;;
43809;SDS011;29440;48.208;11.162;2024-02-26T01:09:53;9.55;;;6.05;;
43809;SDS011;29440;48.208;11.162;2024-02-26T01:12:19;13.02;;;6.20;;
43809;SDS011;29440;48.208;11.162;2024-02-26T01:14:44;8.48;;;5.95;;
43809;SDS011;29440;48.208;11.162;2024-02-26T01:17:10;12.25;;;5.78;;
43809;SDS011;29440;48.208;11.162;2024-02-26T01:19:35;10.55;;;5.63;;
43809;SDS011;29440;48.208;11.162;2024-02-26T01:22:01;8.75;;;4.90;;
43809;SDS011;29440;48.208;11.162;2024-02-26T01:24:27;10.38;;;5.45;;
43809;SDS011;29440;48.208;11.162;2024-02-26T01:26:53;10.80;;;5.85;;
43809;SDS011;29440;48.208;11.162;2024-02-26T01:29:18;12.98;;;6.00;;
43809;SDS011;29440;48.208;11.162;2024-02-26T01:31:44;14.10;;;5.65;;
43809;SDS011;29440;48.208;11.162;2024-02-26T01:34:10;12.35;;;5.95;;
43809;SDS011;29440;48.208;11.162;2024-02-26T01:36:35;11.52;;;6.28;;
43809;SDS011;29440;48.208;11.162;2024-02-26T01:39:01;9.23;;;5.38;;
43809;SDS011;29440;48.208;11.162;2024-02-26T01:41:28;11.93;;;6.32;;
43809;SDS011;29440;48.208;11.162;2024-02-26T01:43:54;11.35;;;5.38;;
43809;SDS011;29440;48.208;11.162;2024-02-26T01:46:19;11.40;;;6.13;;
43809;SDS011;29440;48.208;11.162;2024-02-26T01:48:45;10.10;;;5.70;;
43809;SDS011;29440;48.208;11.162;2024-02-26T01:51:12;10.00;;;5.30;;
43809;SDS011;29440;48.208;11.162;2024-02-26T01:53:40;12.30;;;6.15;;
43809;SDS011;29440;48.208;11.162;2024-02-26T01:56:06;12.65;;;6.45;;
43809;SDS011;29440;48.208;11.162;2024-02-26T01:58:34;12.13;;;6.28;;
43809;SDS011;29440;48.208;11.162;2024-02-26T02:01:00;14.40;;;5.93;;
43809;SDS011;29440;48.208;11.162;2024-02-26T02:03:27;10.95;;;6.07;;
43809;SDS011;29440;48.208;11.162;2024-02-26T02:05:54;15.43;;;6.28;;
43809;SDS011;29440;48.208;11.162;2024-02-26T02:08:19;10.35;;;6.03;;
43809;SDS011;29440;48.208;11.162;2024-02-26T02:10:46;13.25;;;6.03;;
43809;SDS011;29440;48.208;11.162;2024-02-26T02:13:14;12.73;;;6.53;;
43809;SDS011;29440;48.208;11.162;2024-02-26T02:15:39;8.68;;;5.75;;
43809;SDS011;29440;48.208;11.162;2024-02-26T02:18:05;12.20;;;6.47;;
43809;SDS011;29440;48.208;11.162;2024-02-26T02:20:32;10.00;;;5.75;;
43809;SDS011;29440;48.208;11.162;2024-02-26T02:22:59;10.73;;;5.13;;
43809;SDS011;29440;48.208;11.162;2024-02-26T02:25:25;13.02;;;5.78;;
43809;SDS011;29440;48.208;11.162;2024-02-26T02:27:51;11.45;;;6.88;;
43809;SDS011;29440;48.208;11.162;2024-02-26T02:30:21;11.40;;;6.15;;
43809;SDS011;29440;48.208;11.162;2024-02-26T02:32:52;13.32;;;6.57;;
43809;SDS011;29440;48.208;11.162;2024-02-26T02:35:18;13.70;;;6.82;;
43809;SDS011;29440;48.208;11.162;2024-02-26T02:37:44;15.48;;;7.00;;
43809;SDS011;29440;48.208;11.162;2024-02-26T02:40:10;14.35;;;6.93;;
43809;SDS011;29440;48.208;11.162;2024-02-26T02:42:35;10.82;;;6.28;;
43809;SDS011;29440;48.208;11.162;2024-02-26T02:45:01;11.60;;;6.38;;
43809;SDS011;29440;48.208;11.162;2024-02-26T02:47:27;12.60;;;6.50;;
43809;SDS011;29440;48.208;11.162;2024-02-26T02:49:52;11.98;;;6.13;;
43809;SDS011;29440;48.208;11.162;2024-02-26T02:52:18;13.85;;;6.88;;
43809;SDS011;29440;48.208;11.162;2024-02-26T02:54:44;12.25;;;5.72;;
43809;SDS011;29440;48.208;11.162;2024-02-26T02:57:09;15.55;;;7.10;;
43809;SDS011;29440;48.208;11.162;2024-02-26T02:59:35;10.68;;;6.03;;
43809;SDS011;29440;48.208;11.162;2024-02-26T03:02:02;11.45;;;5.70;;
43809;SDS011;29440;48.208;11.162;2024-02-26T03:04:27;13.70;;;6.63;;
43809;SDS011;29440;48.208;11.162;2024-02-26T03:06:54;14.40;;;6.13;;
43809;SDS011;29440;48.208;11.162;2024-02-26T03:09:20;13.35;;;6.68;;
43809;SDS011;29440;48.208;11.162;2024-02-26T03:11:45;12.18;;;5.68;;
43809;SDS011;29440;48.208;11.162;2024-02-26T03:14:11;12.30;;;6.07;;
43809;SDS011;29440;48.208;11.162;2024-02-26T03:16:37;12.43;;;6.00;;
43809;SDS011;29440;48.208;11.162;2024-02-26T03:19:02;9.50;;;5.03;;
43809;SDS011;29440;48.208;11.162;2024-02-26T03:21:28;13.57;;;6.22;;
43809;SDS011;29440;48.208;11.162;2024-02-26T03:23:54;15.55;;;6.38;;
43809;SDS011;29440;48.208;11.162;2024-02-26T03:26:20;15.25;;;6.75;;
43809;SDS011;29440;48.208;11.162;2024-02-26T03:28:46;13.30;;;6.53;;
43809;SDS011;29440;48.208;11.162;2024-02-26T03:31:12;13.32;;;6.80;;
43809;SDS011;29440;48.208;11.162;2024-02-26T03:33:38;12.30;;;5.63;;
43809;SDS011;29440;48.208;11.162;2024-02-26T03:36:04;9.98;;;5.68;;
43809;SDS011;29440;48.208;11.162;2024-02-26T03:38:30;12.70;;;6.25;;
43809;SDS011;29440;48.208;11.162;2024-02-26T03:40:56;15.65;;;6.35;;
43809;SDS011;29440;48.208;11.162;2024-02-26T03:43:21;13.15;;;6.82;;
43809;SDS011;29440;48.208;11.162;2024-02-26T03:45:48;14.70;;;6.80;;
43809;SDS011;29440;48.208;11.162;2024-02-26T03:48:13;14.55;;;6.78;;
43809;SDS011;29440;48.208;11.162;2024-02-26T03:50:39;13.13;;;6.65;;
43809;SDS011;29440;48.208;11.162;2024-02-26T03:53:04;13.07;;;6.00;;
43809;SDS011;29440;48.208;11.162;2024-02-26T03:55:30;12.75;;;6.80;;
43809;SDS011;29440;48.208;11.162;2024-02-26T03:57:56;14.43;;;7.20;;
43809;SDS011;29440;48.208;11.162;2024-02-26T04:00:21;10.40;;;5.75;;
43809;SDS011;29440;48.208;11.162;2024-02-26T04:02:47;13.55;;;7.05;;
43809;SDS011;29440;48.208;11.162;2024-02-26T04:05:13;11.25;;;5.97;;
43809;SDS011;29440;48.208;11.162;2024-02-26T04:07:39;11.07;;;6.57;;
43809;SDS011;29440;48.208;11.162;2024-02-26T04:10:12;13.00;;;6.97;;
43809;SDS011;29440;48.208;11.162;2024-02-26T04:12:41;11.85;;;4.93;;
43809;SDS011;29440;48.208;11.162;2024-02-26T04:15:07;9.18;;;5.32;;
43809;SDS011;29440;48.208;11.162;2024-02-26T04:17:34;11.45;;;5.07;;
43809;SDS011;29440;48.208;11.162;2024-02-26T04:19:59;8.65;;;4.70;;
43809;SDS011;29440;48.208;11.162;2024-02-26T04:22:25;12.52;;;5.20;;
43809;SDS011;29440;48.208;11.162;2024-02-26T04:24:51;9.80;;;4.88;;
43809;SDS011;29440;48.208;11.162;2024-02-26T04:27:16;9.65;;;4.95;;
43809;SDS011;29440;48.208;11.162;2024-02-26T04:29:42;10.60;;;4.68;;
43809;SDS011;29440;48.208;11.162;2024-02-26T04:32:07;11.55;;;5.38;;
43809;SDS011;29440;48.208;11.162;2024-02-26T04:34:33;10.35;;;5.22;;
43809;SDS011;29440;48.208;11.162;2024-02-26T04:36:58;10.63;;;5.57;;
43809;SDS011;29440;48.208;11.162;2024-02-26T04:39:24;9.45;;;4.88;;
43809;SDS011;29440;48.208;11.162;2024-02-26T04:41:51;9.23;;;4.85;;
43809;SDS011;29440;48.208;11.162;2024-02-26T04:44:16;11.27;;;4.85;;
43809;SDS011;29440;48.208;11.162;2024-02-26T04:46:42;9.63;;;5.38;;
43809;SDS011;29440;48.208;11.162;2024-02-26T04:49:08;12.00;;;5.60;;
43809;SDS011;29440;48.208;11.162;2024-02-26T04:51:34;13.32;;;4.82;;
43809;SDS011;29440;48.208;11.162;2024-02-26T04:54:00;11.70;;;5.18;;
43809;SDS011;29440;48.208;11.162;2024-02-26T04:56:25;8.18;;;5.07;;
43809;SDS011;29440;48.208;11.162;2024-02-26T04:58:51;9.13;;;5.20;;
43809;SDS011;29440;48.208;11.162;2024-02-26T05:01:16;8.90;;;4.75;;
43809;SDS011;29440;48.208;11.162;2024-02-26T05:03:43;9.93;;;4.57;;
43809;SDS011;29440;48.208;11.162;2024-02-26T05:06:09;10.90;;;5.68;;
43809;SDS011;29440;48.208;11.162;2024-02-26T05:08:35;10.18;;;4.53;;
43809;SDS011;29440;48.208;11.162;2024-02-26T05:11:04;11.95;;;4.85;;
43809;SDS011;29440;48.208;11.162;2024-02-26T05:13:30;10.55;;;5.30;;
43809;SDS011;29440;48.208;11.162;2024-02-26T05:15:56;9.82;;;5.00;;
43809;SDS011;29440;48.208;11.162;2024-02-26T05:18:22;9.18;;;4.72;;
43809;SDS011;29440;48.208;11.162;2024-02-26T05:20:47;11.70;;;5.10;;
43809;SDS011;29440;48.208;11.162;2024-02-26T05:23:13;9.00;;;5.05;;
43809;SDS011;29440;48.208;11.162;2024-02-26T05:25:39;8.48;;;4.75;;
43809;SDS011;29440;48.208;11.162;2024-02-26T05:28:05;10.05;;;4.90;;
43809;SDS011;29440;48.208;11.162;2024-02-26T05:30:30;9.98;;;5.47;;
43809;SDS011;29440;48.208;11.162;2024-02-26T05:32:56;10.35;;;5.57;;
43809;SDS011;29440;48.208;11.162;2024-02-26T05:35:21;14.68;;;5.82;;
43809;SDS011;29440;48.208;11.162;2024-02-26T05:37:47;16.75;;;7.45;;
43809;SDS011;29440;48.208;11.162;2024-02-26T05:40:13;15.93;;;7.45;;
43809;SDS011;29440;48.208;11.162;2024-02-26T05:42:38;13.55;;;7.15;;
43809;SDS011;29440;48.208;11.162;2024-02-26T05:45:05;13.52;;;6.25;;
43809;SDS011;29440;48.208;11.162;2024-02-26T05:47:34;14.70;;;6.05;;
43809;SDS011;29440;48.208;11.162;2024-02-26T05:50:00;13.20;;;5.63;;
43809;SDS011;29440;48.208;11.162;2024-02-26T05:52:26;11.18;;;5.68;;
43809;SDS011;29440;48.208;11.162;2024-02-26T05:54:53;12.90;;;5.65;;
43809;SDS011;29440;48.208;11.162;2024-02-26T05:57:19;11.38;;;5.30;;
43809;SDS011;29440;48.208;11.162;2024-02-26T05:59:44;13.20;;;5.72;;
43809;SDS011;29440;48.208;11.162;2024-02-26T06:02:10;10.63;;;6.10;;
43809;SDS011;29440;48.208;11.162;2024-02-26T06:04:35;13.52;;;6.38;;
43809;SDS011;29440;48.208;11.162;2024-02-26T06:07:01;14.27;;;6.32;;
43809;SDS011;29440;48.208;11.162;2024-02-26T06:09:27;11.80;;;5.85;;
43809;SDS011;29440;48.208;11.162;2024-02-26T06:11:52;12.18;;;5.80;;
43809;SDS011;29440;48.208;11.162;2024-02-26T06:14:18;14.15;;;6.25;;
43809;SDS011;29440;48.208;11.162;2024-02-26T06:16:45;11.82;;;6.28;;
43809;SDS011;29440;48.208;11.162;2024-02-26T06:19:11;13.05;;;5.97;;
43809;SDS011;29440;48.208;11.162;2024-02-26T06:21:36;12.90;;;6.97;;
43809;SDS011;29440;48.208;11.162;2024-02-26T06:24:02;11.60;;;5.80;;
43809;SDS011;29440;48.208;11.162;2024-02-26T06:26:28;12.65;;;6.28;;
43809;SDS011;29440;48.208;11.162;2024-02-26T06:28:54;13.70;;;6.53;;
43809;SDS011;29440;48.208;11.162;2024-02-26T06:31:21;14.20;;;6.43;;
43809;SDS011;29440;48.208;11.162;2024-02-26T06:33:47;13.93;;;6.20;;
43809;SDS011;29440;48.208;11.162;2024-02-26T06:36:13;14.70;;;7.22;;
43809;SDS011;29440;48.208;11.162;2024-02-26T06:38:40;17.05;;;6.95;;
43809;SDS011;29440;48.208;11.162;2024-02-26T06:41:06;12.98;;;6.65;;
43809;SDS011;29440;48.208;11.162;2024-02-26T06:43:31;14.23;;;6.30;;
43809;SDS011;29440;48.208;11.162;2024-02-26T06:45:57;13.32;;;6.00;;
43809;SDS011;29440;48.208;11.162;2024-02-26T06:48:23;13.77;;;6.72;;
43809;SDS011;29440;48.208;11.162;2024-02-26T06:50:49;12.68;;;5.90;;
43809;SDS011;29440;48.208;11.162;2024-02-26T06:53:15;12.93;;;6.40;;
43809;SDS011;29440;48.208;11.162;2024-02-26T06:55:41;13.20;;;6.55;;
43809;SDS011;29440;48.208;11.162;2024-02-26T06:58:07;9.88;;;5.28;;
43809;SDS011;29440;48.208;11.162;2024-02-26T07:00:33;10.93;;;5.88;;
43809;SDS011;29440;48.208;11.162;2024-02-26T07:02:58;10.60;;;5.65;;
43809;SDS011;29440;48.208;11.162;2024-02-26T07:05:24;13.90;;;6.15;;
43809;SDS011;29440;48.208;11.162;2024-02-26T07:07:49;13.38;;;6.78;;
43809;SDS011;29440;48.208;11.162;2024-02-26T07:10:15;11.65;;;5.93;;
43809;SDS011;29440;48.208;11.162;2024-02-26T07:12:40;12.45;;;6.00;;
43809;SDS011;29440;48.208;11.162;2024-02-26T07:15:06;10.15;;;5.80;;
43809;SDS011;29440;48.208;11.162;2024-02-26T07:17:33;9.57;;;5.30;;
43809;SDS011;29440;48.208;11.162;2024-02-26T07:20:02;11.32;;;5.32;;
43809;SDS011;29440;48.208;11.162;2024-02-26T07:22:30;15.95;;;6.13;;
43809;SDS011;29440;48.208;11.162;2024-02-26T07:25:04;14.43;;;7.07;;
43809;SDS011;29440;48.208;11.162;2024-02-26T07:27:32;11.55;;;6.20;;
43809;SDS011;29440;48.208;11.162;2024-02-26T07:29:58;10.80;;;5.63;;
43809;SDS011;29440;48.208;11.162;2024-02-26T07:32:23;11.20;;;5.35;;
43809;SDS011;29440;48.208;11.162;2024-02-26T07:34:49;12.35;;;6.20;;
43809;SDS011;29440;48.208;11.162;2024-02-26T07:37:15;10.55;;;4.85;;
43809;SDS011;29440;48.208;11.162;2024-02-26T07:39:40;8.80;;;5.05;;
43809;SDS011;29440;48.208;11.162;2024-02-26T07:42:06;11.15;;;5.60;;
43809;SDS011;29440;48.208;11.162;2024-02-26T07:44:32;11.80;;;5.55;;
43809;SDS011;29440;48.208;11.162;2024-02-26T07:46:58;8.77;;;4.85;;
43809;SDS011;29440;48.208;11.162;2024-02-26T07:49:24;10.85;;;5.18;;
43809;SDS011;29440;48.208;11.162;2024-02-26T07:51:49;11.13;;;5.30;;
43809;SDS011;29440;48.208;11.162;2024-02-26T07:54:15;11.43;;;5.68;;
43809;SDS011;29440;48.208;11.162;2024-02-26T07:56:41;12.13;;;5.63;;
43809;SDS011;29440;48.208;11.162;2024-02-26T07:59:07;13.15;;;5.80;;
43809;SDS011;29440;48.208;11.162;2024-02-26T08:01:32;9.75;;;5.35;;
43809;SDS011;29440;48.208;11.162;2024-02-26T08:03:59;12.35;;;5.68;;
43809;SDS011;29440;48.208;11.162;2024-02-26T08:06:25;11.20;;;5.85;;
43809;SDS011;29440;48.208;11.162;2024-02-26T08:08:50;11.00;;;5.28;;
43809;SDS011;29440;48.208;11.162;2024-02-26T08:11:16;9.30;;;5.22;;
43809;SDS011;29440;48.208;11.162;2024-02-26T08:13:42;11.55;;;5.75;;
43809;SDS011;29440;48.208;11.162;2024-02-26T08:16:07;12.68;;;5.97;;
43809;SDS011;29440;48.208;11.162;2024-02-26T08:18:33;11.25;;;5.35;;
43809;SDS011;29440;48.208;11.162;2024-02-26T08:20:58;11.18;;;6.22;;
43809;SDS011;29440;48.208;11.162;2024-02-26T08:23:24;9.20;;;5.05;;
43809;SDS011;29440;48.208;11.162;2024-02-26T08:25:51;11.85;;;4.78;;
43809;SDS011;29440;48.208;11.162;2024-02-26T08:28:16;10.65;;;5.80;;
43809;SDS011;29440;48.208;11.162;2024-02-26T08:30:43;7.45;;;4.80;;
43809;SDS011;29440;48.208;11.162;2024-02-26T08:33:08;9.85;;;5.68;;
43809;SDS011;29440;48.208;11.162;2024-02-26T08:35:35;11.50;;;6.10;;
43809;SDS011;29440;48.208;11.162;2024-02-26T08:38:00;9.82;;;4.75;;
43809;SDS011;29440;48.208;11.162;2024-02-26T08:40:26;10.75;;;5.28;;
43809;SDS011;29440;48.208;11.162;2024-02-26T08:42:52;9.52;;;5.35;;
43809;SDS011;29440;48.208;11.162;2024-02-26T08:45:17;13.38;;;5.68;;
43809;SDS011;29440;48.208;11.162;2024-02-26T08:47:44;14.45;;;6.88;;
43809;SDS011;29440;48.208;11.162;2024-02-26T08:50:10;11.95;;;5.97;;
43809;SDS011;29440;48.208;11.162;2024-02-26T08:52:37;15.00;;;6.13;;
43809;SDS011;29440;48.208;11.162;2024-02-26T08:55:03;12.45;;;6.53;;
43809;SDS011;29440;48.208;11.162;2024-02-26T08:57:29;14.40;;;7.00;;
43809;SDS011;29440;48.208;11.162;2024-02-26T08:59:58;13.30;;;6.15;;
43809;SDS011;29440;48.208;11.162;2024-02-26T09:02:23;12.73;;;6.57;;
43809;SDS011;29440;48.208;11.162;2024-02-26T09:04:49;13.52;;;6.65;;
43809;SDS011;29440;48.208;11.162;2024-02-26T09:07:16;13.10;;;5.63;;
43809;SDS011;29440;48.208;11.162;2024-02-26T09:09:41;10.65;;;6.28;;
43809;SDS011;29440;48.208;11.162;2024-02-26T09:12:07;16.80;;;6.75;;
43809;SDS011;29440;48.208;11.162;2024-02-26T09:14:33;13.27;;;6.97;;
43809;SDS011;29440;48.208;11.162;2024-02-26T09:16:58;16.85;;;7.88;;
43809;SDS011;29440;48.208;11.162;2024-02-26T09:19:25;10.60;;;5.85;;
43809;SDS011;29440;48.208;11.162;2024-02-26T09:21:51;13.77;;;6.25;;
43809;SDS011;29440;48.208;11.162;2024-02-26T09:24:17;12.35;;;4.63;;
43809;SDS011;29440;48.208;11.162;2024-02-26T09:26:42;12.10;;;4.88;;
43809;SDS011;29440;48.208;11.162;2024-02-26T09:29:08;7.75;;;4.55;;
43809;SDS011;29440;48.208;11.162;2024-02-26T09:31:33;8.77;;;4.82;;
43809;SDS011;29440;48.208;11.162;2024-02-26T09:33:59;9.77;;;5.40;;
43809;SDS011;29440;48.208;11.162;2024-02-26T09:36:25;14.63;;;5.50;;
43809;SDS011;29440;48.208;11.162;2024-02-26T09:38:50;10.05;;;4.63;;
43809;SDS011;29440;48.208;11.162;2024-02-26T09:41:16;8.50;;;4.78;;
43809;SDS011;29440;48.208;11.162;2024-02-26T09:43:43;7.50;;;4.00;;
43809;SDS011;29440;48.208;11.162;2024-02-26T09:46:11;8.02;;;4.35;;
43809;SDS011;29440;48.208;11.162;2024-02-26T09:48:37;9.40;;;5.28;;
43809;SDS011;29440;48.208;11.162;2024-02-26T09:51:03;7.95;;;4.68;;
43809;SDS011;29440;48.208;11.162;2024-02-26T09:53:29;9.65;;;5.13;;
43809;SDS011;29440;48.208;11.162;2024-02-26T09:55:57;8.65;;;5.07;;
43809;SDS011;29440;48.208;11.162;2024-02-26T09:58:22;11.48;;;5.05;;
43809;SDS011;29440;48.208;11.162;2024-02-26T10:00:51;10.73;;;5.57;;
43809;SDS011;29440;48.208;11.162;2024-02-26T10:03:21;8.65;;;5.15;;
43809;SDS011;29440;48.208;11.162;2024-02-26T10:05:50;9.25;;;5.05;;
43809;SDS011;29440;48.208;11.162;2024-02-26T10:08:16;7.90;;;5.03;;
43809;SDS011;29440;48.208;11.162;2024-02-26T10:10:43;9.90;;;5.07;;
43809;SDS011;29440;48.208;11.162;2024-02-26T10:13:09;9.75;;;4.90;;
43809;SDS011;29440;48.208;11.162;2024-02-26T10:15:36;8.38;;;4.63;;
43809;SDS011;29440;48.208;11.162;2024-02-26T10:18:05;6.95;;;4.65;;
43809;SDS011;29440;48.208;11.162;2024-02-26T10:20:31;8.38;;;4.57;;
43809;SDS011;29440;48.208;11.162;2024-02-26T10:22:57;7.32;;;3.72;;
43809;SDS011;29440;48.208;11.162;2024-02-26T10:25:23;9.60;;;4.60;;
43809;SDS011;29440;48.208;11.162;2024-02-26T10:27:48;8.02;;;4.00;;
43809;SDS011;29440;48.208;11.162;2024-02-26T10:30:16;6.65;;;4.10;;
43809;SDS011;29440;48.208;11.162;2024-02-26T10:32:44;10.82;;;4.55;;
43809;SDS011;29440;48.208;11.162;2024-02-26T10:35:11;6.35;;;4.10;;
43809;SDS011;29440;48.208;11.162;2024-02-26T10:37:37;8.82;;;4.30;;
43809;SDS011;29440;48.208;11.162;2024-02-26T10:40:02;7.18;;;3.83;;
43809;SDS011;29440;48.208;11.162;2024-02-26T10:42:28;7.60;;;4.15;;
43809;SDS011;29440;48.208;11.162;2024-02-26T10:44:55;4.45;;;2.50;;
43809;SDS011;29440;48.208;11.162;2024-02-26T10:47:22;3.78;;;2.13;;
43809;SDS011;29440;48.208;11.162;2024-02-26T10:49:49;4.20;;;2.33;;
43809;SDS011;29440;48.208;11.162;2024-02-26T10:52:19;6.32;;;2.63;;
43809;SDS011;29440;48.208;11.162;2024-02-26T10:54:47;4.53;;;2.50;;
43809;SDS011;29440;48.208;11.162;2024-02-26T10:57:15;7.18;;;3.25;;
43809;SDS011;29440;48.208;11.162;2024-02-26T10:59:42;7.53;;;3.20;;
43809;SDS011;29440;48.208;11.162;2024-02-26T11:02:09;5.50;;;3.28;;
43809;SDS011;29440;48.208;11.162;2024-02-26T11:04:37;6.53;;;3.70;;
43809;SDS011;29440;48.208;11.162;2024-02-26T11:07:03;5.63;;;3.55;;
43809;SDS011;29440;48.208;11.162;2024-02-26T11:09:31;6.40;;;3.78;;
43809;SDS011;29440;48.208;11.162;2024-02-26T11:11:57;6.15;;;3.60;;
43809;SDS011;29440;48.208;11.162;2024-02-26T11:14:24;5.15;;;3.70;;
43809;SDS011;29440;48.208;11.162;2024-02-26T11:16:51;7.03;;;3.60;;
43809;SDS011;29440;48.208;11.162;2024-02-26T11:19:17;6.60;;;3.40;;
43809;SDS011;29440;48.208;11.162;2024-02-26T11:21:44;8.07;;;3.97;;
43809;SDS011;29440;48.208;11.162;2024-02-26T11:24:11;6.60;;;3.50;;
43809;SDS011;29440;48.208;11.162;2024-02-26T11:26:54;9.25;;;4.45;;
43809;SDS011;29440;48.208;11.162;2024-02-26T11:29:24;8.70;;;3.88;;
43809;SDS011;29440;48.208;11.162;2024-02-26T11:31:53;6.03;;;3.30;;
43809;SDS011;29440;48.208;11.162;2024-02-26T11:34:19;7.15;;;4.13;;
43809;SDS011;29440;48.208;11.162;2024-02-26T11:36:45;5.95;;;3.10;;
43809;SDS011;29440;48.208;11.162;2024-02-26T11:39:13;7.32;;;3.55;;
43809;SDS011;29440;48.208;11.162;2024-02-26T11:41:41;6.35;;;3.17;;
43809;SDS011;29440;48.208;11.162;2024-02-26T11:44:08;6.00;;;3.65;;
43809;SDS011;29440;48.208;11.162;2024-02-26T11:46:38;8.90;;;3.38;;
43809;SDS011;29440;48.208;11.162;2024-02-26T11:51:51;5.68;;;3.58;;
43809;SDS011;29440;48.208;11.162;2024-02-26T11:57:04;7.40;;;2.63;;
43809;SDS011;29440;48.208;11.162;2024-02-26T11:59:39;6.80;;;2.65;;
43809;SDS011;29440;48.208;11.162;2024-02-26T12:02:06;4.38;;;2.78;;
43809;SDS011;29440;48.208;11.162;2024-02-26T12:04:33;4.50;;;2.30;;
43809;SDS011;29440;48.208;11.162;2024-02-26T12:07:01;5.35;;;2.10;;
43809;SDS011;29440;48.208;11.162;2024-02-26T12:12:04;4.75;;;2.47;;
43809;SDS011;29440;48.208;11.162;2024-02-26T12:14:37;4.32;;;2.08;;
43809;SDS011;29440;48.208;11.162;2024-02-26T12:17:18;3.53;;;1.50;;
43809;SDS011;29440;48.208;11.162;2024-02-26T12:19:45;2.95;;;1.63;;
43809;SDS011;29440;48.208;11.162;2024-02-26T12:22:13;2.72;;;1.40;;
43809;SDS011;29440;48.208;11.162;2024-02-26T12:24:39;3.03;;;1.30;;
43809;SDS011;29440;48.208;11.162;2024-02-26T12:27:05;2.53;;;1.52;;
43809;SDS011;29440;48.208;11.162;2024-02-26T12:29:31;2.55;;;1.40;;
43809;SDS011;29440;48.208;11.162;2024-02-26T12:31:57;2.03;;;1.08;;
43809;SDS011;29440;48.208;11.162;2024-02-26T12:34:25;3.80;;;1.55;;
43809;SDS011;29440;48.208;11.162;2024-02-26T12:36:53;2.55;;;1.33;;
43809;SDS011;29440;48.208;11.162;2024-02-26T12:39:19;3.30;;;1.40;;
43809;SDS011;29440;48.208;11.162;2024-02-26T12:41:46;4.25;;;1.40;;
43809;SDS011;29440;48.208;11.162;2024-02-26T12:44:17;4.03;;;1.30;;
43809;SDS011;29440;48.208;11.162;2024-02-26T12:47:09;2.35;;;1.20;;
43809;SDS011;29440;48.208;11.162;2024-02-26T12:49:35;3.85;;;1.23;;
43809;SDS011;29440;48.208;11.162;2024-02-26T12:52:01;1.90;;;1.30;;
43809;SDS011;29440;48.208;11.162;2024-02-26T12:54:30;1.75;;;0.85;;
43809;SDS011;29440;48.208;11.162;2024-02-26T12:56:57;1.85;;;1.13;;
43809;SDS011;29440;48.208;11.162;2024-02-26T12:59:25;1.83;;;1.30;;
43809;SDS011;29440;48.208;11.162;2024-02-26T13:01:51;2.40;;;1.10;;
43809;SDS011;29440;48.208;11.162;2024-02-26T13:04:17;3.05;;;1.05;;
43809;SDS011;29440;48.208;11.162;2024-02-26T13:06:43;2.97;;;1.23;;
43809;SDS011;29440;48.208;11.162;2024-02-26T13:09:12;2.35;;;0.98;;
43809;SDS011;29440;48.208;11.162;2024-02-26T13:11:41;2.88;;;1.00;;
43809;SDS011;29440;48.208;11.162;2024-02-26T13:14:21;2.08;;;1.15;;
43809;SDS011;29440;48.208;11.162;2024-02-26T13:16:54;1.63;;;0.98;;
43809;SDS011;29440;48.208;11.162;2024-02-26T13:19:21;2.57;;;0.73;;
43809;SDS011;29440;48.208;11.162;2024-02-26T13:21:49;3.55;;;1.00;;
43809;SDS011;29440;48.208;11.162;2024-02-26T13:24:15;5.82;;;0.98;;
43809;SDS011;29440;48.208;11.162;2024-02-26T13:26:43;3.60;;;1.25;;
43809;SDS011;29440;48.208;11.162;2024-02-26T13:29:15;4.30;;;1.73;;
43809;SDS011;29440;48.208;11.162;2024-02-26T13:31:44;3.35;;;1.25;;
43809;SDS011;29440;48.208;11.162;2024-02-26T13:34:09;3.63;;;1.25;;
43809;SDS011;29440;48.208;11.162;2024-02-26T13:36:35;2.42;;;1.20;;
43809;SDS011;29440;48.208;11.162;2024-02-26T13:39:04;5.20;;;1.70;;
43809;SDS011;29440;48.208;11.162;2024-02-26T13:41:37;4.72;;;1.60;;
43809;SDS011;29440;48.208;11.162;2024-02-26T13:44:03;6.05;;;2.22;;
43809;SDS011;29440;48.208;11.162;2024-02-26T13:46:29;5.25;;;1.45;;
43809;SDS011;29440;48.208;11.162;2024-02-26T13:48:55;5.50;;;2.00;;
43809;SDS011;29440;48.208;11.162;2024-02-26T13:51:26;5.00;;;1.70;;
43809;SDS011;29440;48.208;11.162;2024-02-26T13:53:54;5.43;;;2.13;;
43809;SDS011;29440;48.208;11.162;2024-02-26T13:56:20;6.13;;;1.75;;
43809;SDS011;29440;48.208;11.162;2024-02-26T13:58:45;2.35;;;1.20;;
43809;SDS011;29440;48.208;11.162;2024-02-26T14:01:14;2.03;;;1.25;;
43809;SDS011;29440;48.208;11.162;2024-02-26T14:03:40;3.63;;;1.25;;
43809;SDS011;29440;48.208;11.162;2024-02-26T14:06:05;2.35;;;1.25;;
43809;SDS011;29440;48.208;11.162;2024-02-26T14:08:31;9.13;;;1.70;;
43809;SDS011;29440;48.208;11.162;2024-02-26T14:11:06;2.78;;;1.58;;
43809;SDS011;29440;48.208;11.162;2024-02-26T14:13:32;2.88;;;1.40;;
43809;SDS011;29440;48.208;11.162;2024-02-26T14:16:01;2.97;;;1.25;;
43809;SDS011;29440;48.208;11.162;2024-02-26T14:18:29;3.38;;;1.15;;
43809;SDS011;29440;48.208;11.162;2024-02-26T14:20:54;2.70;;;1.13;;
43809;SDS011;29440;48.208;11.162;2024-02-26T14:23:20;2.15;;;1.08;;
43809;SDS011;29440;48.208;11.162;2024-02-26T14:25:46;1.95;;;0.90;;
43809;SDS011;29440;48.208;11.162;2024-02-26T14:28:14;3.10;;;0.90;;
43809;SDS011;29440;48.208;11.162;2024-02-26T14:30:40;3.28;;;1.00;;
43809;SDS011;29440;48.208;11.162;2024-02-26T14:33:06;2.30;;;1.10;;